sensor_id;sensor_type;location;lat;lon;timestamp;temperature;humidity
11112;DHT22;5609;49.466;8.468;2024-02-21T00:01:29;10.30;99.90
11112;DHT22;5609;49.466;8.468;2024-02-21T00:04:00;10.30;99.90
11112;DHT22;5609;49.466;8.468;2024-02-21T00:06:28;10.30;99.90
11112;DHT22;5609;49.466;8.468;2024-02-21T00:08:55;10.40;99.90
11112;DHT22;5609;49.466;8.468;2024-02-21T00:11:25;10.30;99.90
11112;DHT22;5609;49.466;8.468;2024-02-21T00:13:53;10.40;99.90
11112;DHT22;5609;49.466;8.468;2024-02-21T00:16:20;10.40;99.90
11112;DHT22;5609;49.466;8.468;2024-02-21T00:18:47;10.40;99.90
11112;DHT22;5609;49.466;8.468;2024-02-21T00:21:14;10.30;99.90
11112;DHT22;5609;49.466;8.468;2024-02-21T00:23:43;10.40;99.90
11112;DHT22;5609;49.466;8.468;2024-02-21T00:26:11;10.40;99.90
11112;DHT22;5609;49.466;8.468;2024-02-21T00:28:39;10.40;99.90
11112;DHT22;5609;49.466;8.468;2024-02-21T00:31:06;10.40;99.90
11112;DHT22;5609;49.466;8.468;2024-02-21T00:33:33;10.50;99.90
11112;DHT22;5609;49.466;8.468;2024-02-21T00:36:00;10.50;99.90
11112;DHT22;5609;49.466;8.468;2024-02-21T00:38:27;10.50;99.90
11112;DHT22;5609;49.466;8.468;2024-02-21T00:40:55;10.50;99.90
11112;DHT22;5609;49.466;8.468;2024-02-21T00:43:22;10.40;99.90
11112;DHT22;5609;49.466;8.468;2024-02-21T00:45:51;10.30;99.90
11112;DHT22;5609;49.466;8.468;2024-02-21T00:48:17;10.30;99.90
11112;DHT22;5609;49.466;8.468;2024-02-21T00:50:44;10.40;99.90
11112;DHT22;5609;49.466;8.468;2024-02-21T00:53:11;10.40;99.90
11112;DHT22;5609;49.466;8.468;2024-02-21T00:55:37;10.30;99.90
11112;DHT22;5609;49.466;8.468;2024-02-21T00:58:05;10.20;99.90
11112;DHT22;5609;49.466;8.468;2024-02-21T01:00:32;10.10;99.90
11112;DHT22;5609;49.466;8.468;2024-02-21T01:03:00;10.10;99.90
11112;DHT22;5609;49.466;8.468;2024-02-21T01:05:28;10.00;99.90
11112;DHT22;5609;49.466;8.468;2024-02-21T01:07:55;9.90;99.90
11112;DHT22;5609;49.466;8.468;2024-02-21T01:10:25;9.90;99.90
11112;DHT22;5609;49.466;8.468;2024-02-21T01:12:52;9.80;99.90
11112;DHT22;5609;49.466;8.468;2024-02-21T01:15:19;9.90;99.90
11112;DHT22;5609;49.466;8.468;2024-02-21T01:17:49;9.90;99.90
11112;DHT22;5609;49.466;8.468;2024-02-21T01:20:21;9.90;99.90
11112;DHT22;5609;49.466;8.468;2024-02-21T01:22:48;10.10;99.90
11112;DHT22;5609;49.466;8.468;2024-02-21T01:25:16;10.00;99.90
11112;DHT22;5609;49.466;8.468;2024-02-21T01:27:43;10.10;99.90
11112;DHT22;5609;49.466;8.468;2024-02-21T01:30:11;10.20;99.90
11112;DHT22;5609;49.466;8.468;2024-02-21T01:32:38;10.20;99.90
11112;DHT22;5609;49.466;8.468;2024-02-21T01:35:05;10.20;99.90
11112;DHT22;5609;49.466;8.468;2024-02-21T01:37:35;10.30;99.90
11112;DHT22;5609;49.466;8.468;2024-02-21T01:40:02;10.20;99.90
11112;DHT22;5609;49.466;8.468;2024-02-21T01:42:30;10.20;99.90
11112;DHT22;5609;49.466;8.468;2024-02-21T01:44:57;10.10;99.90
11112;DHT22;5609;49.466;8.468;2024-02-21T01:47:24;10.20;99.90
11112;DHT22;5609;49.466;8.468;2024-02-21T01:49:51;10.10;99.90
11112;DHT22;5609;49.466;8.468;2024-02-21T01:52:18;10.10;99.90
11112;DHT22;5609;49.466;8.468;2024-02-21T01:54:47;10.00;99.90
11112;DHT22;5609;49.466;8.468;2024-02-21T01:57:14;9.80;99.90
11112;DHT22;5609;49.466;8.468;2024-02-21T01:59:42;9.70;99.90
11112;DHT22;5609;49.466;8.468;2024-02-21T02:02:10;9.70;99.90
11112;DHT22;5609;49.466;8.468;2024-02-21T02:04:38;9.70;99.90
11112;DHT22;5609;49.466;8.468;2024-02-21T02:07:08;9.70;99.90
11112;DHT22;5609;49.466;8.468;2024-02-21T02:09:35;9.70;99.90
11112;DHT22;5609;49.466;8.468;2024-02-21T02:12:04;9.80;99.90
11112;DHT22;5609;49.466;8.468;2024-02-21T02:14:31;10.00;99.90
11112;DHT22;5609;49.466;8.468;2024-02-21T02:16:58;10.00;99.90
11112;DHT22;5609;49.466;8.468;2024-02-21T02:19:25;10.10;99.90
11112;DHT22;5609;49.466;8.468;2024-02-21T02:21:55;10.30;99.90
11112;DHT22;5609;49.466;8.468;2024-02-21T02:24:26;10.30;99.90
11112;DHT22;5609;49.466;8.468;2024-02-21T02:26:55;10.30;99.90
11112;DHT22;5609;49.466;8.468;2024-02-21T02:29:22;10.30;99.90
11112;DHT22;5609;49.466;8.468;2024-02-21T02:31:49;10.30;99.90
11112;DHT22;5609;49.466;8.468;2024-02-21T02:34:16;10.30;99.90
11112;DHT22;5609;49.466;8.468;2024-02-21T02:36:44;10.40;99.90
11112;DHT22;5609;49.466;8.468;2024-02-21T02:39:10;10.20;99.90
11112;DHT22;5609;49.466;8.468;2024-02-21T02:41:40;10.10;99.90
11112;DHT22;5609;49.466;8.468;2024-02-21T02:44:07;10.00;99.90
11112;DHT22;5609;49.466;8.468;2024-02-21T02:46:34;10.00;99.90
11112;DHT22;5609;49.466;8.468;2024-02-21T02:49:01;9.90;99.90
11112;DHT22;5609;49.466;8.468;2024-02-21T02:51:27;9.80;99.90
11112;DHT22;5609;49.466;8.468;2024-02-21T02:53:54;9.80;99.90
11112;DHT22;5609;49.466;8.468;2024-02-21T02:56:22;9.80;99.90
11112;DHT22;5609;49.466;8.468;2024-02-21T02:58:51;9.80;99.90
11112;DHT22;5609;49.466;8.468;2024-02-21T03:01:18;9.80;99.90
11112;DHT22;5609;49.466;8.468;2024-02-21T03:03:44;9.90;99.90
11112;DHT22;5609;49.466;8.468;2024-02-21T03:06:12;9.90;99.90
11112;DHT22;5609;49.466;8.468;2024-02-21T03:08:39;9.90;99.90
11112;DHT22;5609;49.466;8.468;2024-02-21T03:11:06;9.70;99.90
11112;DHT22;5609;49.466;8.468;2024-02-21T03:13:33;9.70;99.90
11112;DHT22;5609;49.466;8.468;2024-02-21T03:16:02;9.70;99.90
11112;DHT22;5609;49.466;8.468;2024-02-21T03:18:28;9.60;99.90
11112;DHT22;5609;49.466;8.468;2024-02-21T03:20:55;9.60;99.90
11112;DHT22;5609;49.466;8.468;2024-02-21T03:23:22;9.60;99.90
11112;DHT22;5609;49.466;8.468;2024-02-21T03:25:49;9.60;99.90
11112;DHT22;5609;49.466;8.468;2024-02-21T03:28:16;9.60;99.90
11112;DHT22;5609;49.466;8.468;2024-02-21T03:30:43;9.60;99.90
11112;DHT22;5609;49.466;8.468;2024-02-21T03:33:11;9.70;99.90
11112;DHT22;5609;49.466;8.468;2024-02-21T03:35:38;9.70;99.90
11112;DHT22;5609;49.466;8.468;2024-02-21T03:38:05;9.70;99.90
11112;DHT22;5609;49.466;8.468;2024-02-21T03:40:31;9.70;99.90
11112;DHT22;5609;49.466;8.468;2024-02-21T03:42:58;9.80;99.90
11112;DHT22;5609;49.466;8.468;2024-02-21T03:45:25;10.00;99.90
11112;DHT22;5609;49.466;8.468;2024-02-21T03:47:55;10.00;99.90
11112;DHT22;5609;49.466;8.468;2024-02-21T03:50:23;10.20;99.90
11112;DHT22;5609;49.466;8.468;2024-02-21T03:52:51;10.20;99.90
11112;DHT22;5609;49.466;8.468;2024-02-21T03:55:18;10.30;99.90
11112;DHT22;5609;49.466;8.468;2024-02-21T03:57:46;10.40;99.90
11112;DHT22;5609;49.466;8.468;2024-02-21T04:00:15;10.40;99.90
11112;DHT22;5609;49.466;8.468;2024-02-21T04:02:42;10.40;99.90
11112;DHT22;5609;49.466;8.468;2024-02-21T04:05:09;10.40;99.90
11112;DHT22;5609;49.466;8.468;2024-02-21T04:07:40;10.50;99.90
11112;DHT22;5609;49.466;8.468;2024-02-21T04:10:08;10.60;99.90
11112;DHT22;5609;49.466;8.468;2024-02-21T04:12:35;10.60;99.90
11112;DHT22;5609;49.466;8.468;2024-02-21T04:15:04;10.70;99.90
11112;DHT22;5609;49.466;8.468;2024-02-21T04:17:31;10.80;99.90
11112;DHT22;5609;49.466;8.468;2024-02-21T04:20:05;10.90;99.90
11112;DHT22;5609;49.466;8.468;2024-02-21T04:22:33;10.80;99.90
11112;DHT22;5609;49.466;8.468;2024-02-21T04:25:02;10.50;99.90
11112;DHT22;5609;49.466;8.468;2024-02-21T04:27:28;10.30;99.90
11112;DHT22;5609;49.466;8.468;2024-02-21T04:29:55;10.00;99.90
11112;DHT22;5609;49.466;8.468;2024-02-21T04:32:22;9.70;99.90
11112;DHT22;5609;49.466;8.468;2024-02-21T04:34:48;9.50;99.90
11112;DHT22;5609;49.466;8.468;2024-02-21T04:37:17;9.40;99.90
11112;DHT22;5609;49.466;8.468;2024-02-21T04:39:44;9.20;99.90
11112;DHT22;5609;49.466;8.468;2024-02-21T04:42:12;9.00;99.90
11112;DHT22;5609;49.466;8.468;2024-02-21T04:44:39;8.80;99.90
11112;DHT22;5609;49.466;8.468;2024-02-21T04:47:06;8.70;99.90
11112;DHT22;5609;49.466;8.468;2024-02-21T04:49:33;8.50;99.90
11112;DHT22;5609;49.466;8.468;2024-02-21T04:52:01;8.30;99.90
11112;DHT22;5609;49.466;8.468;2024-02-21T04:54:27;8.10;99.90
11112;DHT22;5609;49.466;8.468;2024-02-21T04:56:54;8.00;99.90
11112;DHT22;5609;49.466;8.468;2024-02-21T04:59:25;7.90;99.90
11112;DHT22;5609;49.466;8.468;2024-02-21T05:01:52;7.70;99.90
11112;DHT22;5609;49.466;8.468;2024-02-21T05:04:18;7.70;99.90
11112;DHT22;5609;49.466;8.468;2024-02-21T05:06:46;7.60;99.90
11112;DHT22;5609;49.466;8.468;2024-02-21T05:09:14;7.60;99.90
11112;DHT22;5609;49.466;8.468;2024-02-21T05:11:41;7.60;99.90
11112;DHT22;5609;49.466;8.468;2024-02-21T05:14:09;7.60;99.90
11112;DHT22;5609;49.466;8.468;2024-02-21T05:16:38;7.50;99.90
11112;DHT22;5609;49.466;8.468;2024-02-21T05:19:05;7.50;99.90
11112;DHT22;5609;49.466;8.468;2024-02-21T05:21:32;7.40;99.90
11112;DHT22;5609;49.466;8.468;2024-02-21T05:23:58;7.40;99.90
11112;DHT22;5609;49.466;8.468;2024-02-21T05:26:26;7.40;99.90
11112;DHT22;5609;49.466;8.468;2024-02-21T05:28:54;7.30;99.90
11112;DHT22;5609;49.466;8.468;2024-02-21T05:31:21;7.30;99.90
11112;DHT22;5609;49.466;8.468;2024-02-21T05:33:49;7.30;99.90
11112;DHT22;5609;49.466;8.468;2024-02-21T05:36:16;7.30;99.90
11112;DHT22;5609;49.466;8.468;2024-02-21T05:38:42;7.30;99.90
11112;DHT22;5609;49.466;8.468;2024-02-21T05:41:09;7.20;99.90
11112;DHT22;5609;49.466;8.468;2024-02-21T05:43:36;7.20;99.90
11112;DHT22;5609;49.466;8.468;2024-02-21T05:46:03;7.10;99.90
11112;DHT22;5609;49.466;8.468;2024-02-21T05:48:30;7.00;99.90
11112;DHT22;5609;49.466;8.468;2024-02-21T05:51:01;7.00;99.90
11112;DHT22;5609;49.466;8.468;2024-02-21T05:53:29;6.90;99.90
11112;DHT22;5609;49.466;8.468;2024-02-21T05:55:55;6.90;99.90
11112;DHT22;5609;49.466;8.468;2024-02-21T05:58:22;6.90;99.90
11112;DHT22;5609;49.466;8.468;2024-02-21T06:00:51;6.80;99.90
11112;DHT22;5609;49.466;8.468;2024-02-21T06:03:30;6.80;99.90
11112;DHT22;5609;49.466;8.468;2024-02-21T06:05:59;6.80;99.90
11112;DHT22;5609;49.466;8.468;2024-02-21T06:08:26;6.60;99.90
11112;DHT22;5609;49.466;8.468;2024-02-21T06:10:55;6.70;99.90
11112;DHT22;5609;49.466;8.468;2024-02-21T06:13:23;6.70;99.90
11112;DHT22;5609;49.466;8.468;2024-02-21T06:15:52;6.60;99.90
11112;DHT22;5609;49.466;8.468;2024-02-21T06:18:20;6.60;99.90
11112;DHT22;5609;49.466;8.468;2024-02-21T06:20:47;6.60;99.90
11112;DHT22;5609;49.466;8.468;2024-02-21T06:23:16;6.50;99.90
11112;DHT22;5609;49.466;8.468;2024-02-21T06:25:43;6.50;99.90
11112;DHT22;5609;49.466;8.468;2024-02-21T06:28:10;6.50;99.90
11112;DHT22;5609;49.466;8.468;2024-02-21T06:30:36;6.50;99.90
11112;DHT22;5609;49.466;8.468;2024-02-21T06:33:04;6.50;99.90
11112;DHT22;5609;49.466;8.468;2024-02-21T06:35:33;6.40;99.90
11112;DHT22;5609;49.466;8.468;2024-02-21T06:38:00;6.40;99.90
11112;DHT22;5609;49.466;8.468;2024-02-21T06:40:29;6.40;99.90
11112;DHT22;5609;49.466;8.468;2024-02-21T06:43:03;6.40;99.90
11112;DHT22;5609;49.466;8.468;2024-02-21T06:45:30;6.40;99.90
11112;DHT22;5609;49.466;8.468;2024-02-21T06:47:57;6.40;99.90
11112;DHT22;5609;49.466;8.468;2024-02-21T06:50:26;6.40;99.90
11112;DHT22;5609;49.466;8.468;2024-02-21T06:52:53;6.50;99.90
11112;DHT22;5609;49.466;8.468;2024-02-21T06:55:20;6.50;99.90
11112;DHT22;5609;49.466;8.468;2024-02-21T06:57:48;6.50;99.90
11112;DHT22;5609;49.466;8.468;2024-02-21T07:00:19;6.50;99.90
11112;DHT22;5609;49.466;8.468;2024-02-21T07:02:46;6.60;99.90
11112;DHT22;5609;49.466;8.468;2024-02-21T07:05:14;6.60;99.90
11112;DHT22;5609;49.466;8.468;2024-02-21T07:07:41;6.60;99.90
11112;DHT22;5609;49.466;8.468;2024-02-21T07:10:08;6.70;99.90
11112;DHT22;5609;49.466;8.468;2024-02-21T07:12:36;6.70;99.90
11112;DHT22;5609;49.466;8.468;2024-02-21T07:15:07;6.70;99.90
11112;DHT22;5609;49.466;8.468;2024-02-21T07:17:34;6.70;99.90
11112;DHT22;5609;49.466;8.468;2024-02-21T07:20:02;6.80;99.90
11112;DHT22;5609;49.466;8.468;2024-02-21T07:22:28;6.80;99.90
11112;DHT22;5609;49.466;8.468;2024-02-21T07:24:55;6.80;99.90
11112;DHT22;5609;49.466;8.468;2024-02-21T07:27:21;6.90;99.90
11112;DHT22;5609;49.466;8.468;2024-02-21T07:29:48;6.90;99.90
11112;DHT22;5609;49.466;8.468;2024-02-21T07:32:18;6.90;99.90
11112;DHT22;5609;49.466;8.468;2024-02-21T07:34:45;7.00;99.90
11112;DHT22;5609;49.466;8.468;2024-02-21T07:37:12;7.10;99.90
11112;DHT22;5609;49.466;8.468;2024-02-21T07:39:39;7.20;99.90
11112;DHT22;5609;49.466;8.468;2024-02-21T07:42:06;7.20;99.90
11112;DHT22;5609;49.466;8.468;2024-02-21T07:44:34;7.30;99.90
11112;DHT22;5609;49.466;8.468;2024-02-21T07:47:03;7.40;99.90
11112;DHT22;5609;49.466;8.468;2024-02-21T07:49:53;7.40;99.90
11112;DHT22;5609;49.466;8.468;2024-02-21T07:52:26;7.50;99.90
11112;DHT22;5609;49.466;8.468;2024-02-21T07:54:53;7.50;99.90
11112;DHT22;5609;49.466;8.468;2024-02-21T07:57:23;7.60;99.90
11112;DHT22;5609;49.466;8.468;2024-02-21T07:59:57;7.80;99.90
11112;DHT22;5609;49.466;8.468;2024-02-21T08:02:38;7.80;99.90
11112;DHT22;5609;49.466;8.468;2024-02-21T08:05:27;8.00;99.90
11112;DHT22;5609;49.466;8.468;2024-02-21T08:07:55;8.10;99.90
11112;DHT22;5609;49.466;8.468;2024-02-21T08:10:23;8.10;99.90
11112;DHT22;5609;49.466;8.468;2024-02-21T08:12:50;8.20;99.90
11112;DHT22;5609;49.466;8.468;2024-02-21T08:15:18;8.30;99.90
11112;DHT22;5609;49.466;8.468;2024-02-21T08:17:50;8.40;99.90
11112;DHT22;5609;49.466;8.468;2024-02-21T08:20:17;8.40;99.90
11112;DHT22;5609;49.466;8.468;2024-02-21T08:22:47;8.50;99.90
11112;DHT22;5609;49.466;8.468;2024-02-21T08:25:14;8.50;99.90
11112;DHT22;5609;49.466;8.468;2024-02-21T08:27:42;8.60;99.90
11112;DHT22;5609;49.466;8.468;2024-02-21T08:30:11;8.50;99.90
11112;DHT22;5609;49.466;8.468;2024-02-21T08:32:38;8.40;99.90
11112;DHT22;5609;49.466;8.468;2024-02-21T08:35:06;8.50;99.90
11112;DHT22;5609;49.466;8.468;2024-02-21T08:37:33;8.60;99.90
11112;DHT22;5609;49.466;8.468;2024-02-21T08:40:00;8.70;99.90
11112;DHT22;5609;49.466;8.468;2024-02-21T08:42:33;8.80;99.90
11112;DHT22;5609;49.466;8.468;2024-02-21T08:45:00;8.70;99.90
11112;DHT22;5609;49.466;8.468;2024-02-21T08:47:27;8.80;99.90
11112;DHT22;5609;49.466;8.468;2024-02-21T08:49:54;8.90;99.90
11112;DHT22;5609;49.466;8.468;2024-02-21T08:52:21;8.90;99.90
11112;DHT22;5609;49.466;8.468;2024-02-21T08:54:48;9.00;99.90
11112;DHT22;5609;49.466;8.468;2024-02-21T08:57:19;9.10;99.90
11112;DHT22;5609;49.466;8.468;2024-02-21T08:59:46;8.90;99.90
11112;DHT22;5609;49.466;8.468;2024-02-21T09:02:13;9.00;99.90
11112;DHT22;5609;49.466;8.468;2024-02-21T09:04:41;9.10;99.90
11112;DHT22;5609;49.466;8.468;2024-02-21T09:07:09;9.20;99.90
11112;DHT22;5609;49.466;8.468;2024-02-21T09:09:36;9.30;99.90
11112;DHT22;5609;49.466;8.468;2024-02-21T09:12:04;9.30;99.90
11112;DHT22;5609;49.466;8.468;2024-02-21T09:14:34;9.50;99.90
11112;DHT22;5609;49.466;8.468;2024-02-21T09:17:01;9.70;99.90
11112;DHT22;5609;49.466;8.468;2024-02-21T09:19:28;9.80;99.90
11112;DHT22;5609;49.466;8.468;2024-02-21T09:21:55;9.90;99.90
11112;DHT22;5609;49.466;8.468;2024-02-21T09:24:21;10.00;99.90
11112;DHT22;5609;49.466;8.468;2024-02-21T09:26:48;10.00;99.90
11112;DHT22;5609;49.466;8.468;2024-02-21T09:29:15;10.00;99.90
11112;DHT22;5609;49.466;8.468;2024-02-21T09:31:44;10.10;99.90
11112;DHT22;5609;49.466;8.468;2024-02-21T09:34:13;10.20;99.90
11112;DHT22;5609;49.466;8.468;2024-02-21T09:36:40;10.20;99.90
11112;DHT22;5609;49.466;8.468;2024-02-21T09:39:06;10.40;99.90
11112;DHT22;5609;49.466;8.468;2024-02-21T09:41:36;10.50;99.90
11112;DHT22;5609;49.466;8.468;2024-02-21T09:44:05;10.50;99.90
11112;DHT22;5609;49.466;8.468;2024-02-21T09:46:40;10.60;99.90
11112;DHT22;5609;49.466;8.468;2024-02-21T09:49:17;10.80;99.90
11112;DHT22;5609;49.466;8.468;2024-02-21T09:51:50;10.80;99.90
11112;DHT22;5609;49.466;8.468;2024-02-21T09:54:18;11.00;99.90
11112;DHT22;5609;49.466;8.468;2024-02-21T09:56:46;11.00;99.90
11112;DHT22;5609;49.466;8.468;2024-02-21T09:59:14;11.00;99.90
11112;DHT22;5609;49.466;8.468;2024-02-21T10:01:45;11.10;99.90
11112;DHT22;5609;49.466;8.468;2024-02-21T10:04:15;11.20;99.90
11112;DHT22;5609;49.466;8.468;2024-02-21T10:06:42;11.30;99.90
11112;DHT22;5609;49.466;8.468;2024-02-21T10:09:20;11.30;99.90
11112;DHT22;5609;49.466;8.468;2024-02-21T10:11:48;11.30;99.90
11112;DHT22;5609;49.466;8.468;2024-02-21T10:14:15;11.40;99.90
11112;DHT22;5609;49.466;8.468;2024-02-21T10:16:44;11.50;99.90
11112;DHT22;5609;49.466;8.468;2024-02-21T10:19:20;11.60;99.90
11112;DHT22;5609;49.466;8.468;2024-02-21T10:22:01;11.70;99.90
11112;DHT22;5609;49.466;8.468;2024-02-21T10:24:29;11.70;99.90
11112;DHT22;5609;49.466;8.468;2024-02-21T10:27:01;11.90;99.90
11112;DHT22;5609;49.466;8.468;2024-02-21T10:29:28;12.20;99.90
11112;DHT22;5609;49.466;8.468;2024-02-21T10:32:04;12.20;99.90
11112;DHT22;5609;49.466;8.468;2024-02-21T10:34:37;12.30;99.90
11112;DHT22;5609;49.466;8.468;2024-02-21T10:37:05;12.20;99.90
11112;DHT22;5609;49.466;8.468;2024-02-21T10:39:34;12.30;99.90
11112;DHT22;5609;49.466;8.468;2024-02-21T10:42:03;12.50;99.90
11112;DHT22;5609;49.466;8.468;2024-02-21T10:44:31;12.60;99.90
11112;DHT22;5609;49.466;8.468;2024-02-21T10:46:59;12.60;99.90
11112;DHT22;5609;49.466;8.468;2024-02-21T10:49:27;12.70;99.90
11112;DHT22;5609;49.466;8.468;2024-02-21T10:52:03;12.80;99.90
11112;DHT22;5609;49.466;8.468;2024-02-21T10:54:44;12.60;99.90
11112;DHT22;5609;49.466;8.468;2024-02-21T10:57:13;12.70;99.90
11112;DHT22;5609;49.466;8.468;2024-02-21T10:59:40;12.60;99.90
11112;DHT22;5609;49.466;8.468;2024-02-21T11:02:08;12.70;99.90
11112;DHT22;5609;49.466;8.468;2024-02-21T11:04:36;12.60;99.90
11112;DHT22;5609;49.466;8.468;2024-02-21T11:07:07;12.70;99.90
11112;DHT22;5609;49.466;8.468;2024-02-21T11:09:34;12.80;99.90
11112;DHT22;5609;49.466;8.468;2024-02-21T11:12:03;12.70;99.90
11112;DHT22;5609;49.466;8.468;2024-02-21T11:14:30;12.80;99.90
11112;DHT22;5609;49.466;8.468;2024-02-21T11:17:01;12.80;99.90
11112;DHT22;5609;49.466;8.468;2024-02-21T11:19:30;12.80;99.90
11112;DHT22;5609;49.466;8.468;2024-02-21T11:21:58;12.90;99.90
11112;DHT22;5609;49.466;8.468;2024-02-21T11:24:29;12.80;99.90
11112;DHT22;5609;49.466;8.468;2024-02-21T11:26:56;12.80;99.90
11112;DHT22;5609;49.466;8.468;2024-02-21T11:29:24;12.80;99.90
11112;DHT22;5609;49.466;8.468;2024-02-21T11:31:51;12.70;99.90
11112;DHT22;5609;49.466;8.468;2024-02-21T11:34:19;12.80;99.90
11112;DHT22;5609;49.466;8.468;2024-02-21T11:36:47;12.90;99.90
11112;DHT22;5609;49.466;8.468;2024-02-21T11:39:19;12.70;99.90
11112;DHT22;5609;49.466;8.468;2024-02-21T11:42:02;12.80;99.90
11112;DHT22;5609;49.466;8.468;2024-02-21T11:44:31;12.60;99.90
11112;DHT22;5609;49.466;8.468;2024-02-21T11:46:58;12.70;99.90
11112;DHT22;5609;49.466;8.468;2024-02-21T11:49:25;12.50;99.90
11112;DHT22;5609;49.466;8.468;2024-02-21T11:51:58;12.50;99.90
11112;DHT22;5609;49.466;8.468;2024-02-21T11:54:26;12.50;99.90
11112;DHT22;5609;49.466;8.468;2024-02-21T11:56:54;12.50;99.90
11112;DHT22;5609;49.466;8.468;2024-02-21T11:59:22;12.40;99.90
11112;DHT22;5609;49.466;8.468;2024-02-21T12:01:50;12.40;99.90
11112;DHT22;5609;49.466;8.468;2024-02-21T12:04:18;12.50;99.90
11112;DHT22;5609;49.466;8.468;2024-02-21T12:06:46;12.60;99.90
11112;DHT22;5609;49.466;8.468;2024-02-21T12:09:14;12.60;99.90
11112;DHT22;5609;49.466;8.468;2024-02-21T12:11:41;12.70;99.90
11112;DHT22;5609;49.466;8.468;2024-02-21T12:14:11;12.80;99.90
11112;DHT22;5609;49.466;8.468;2024-02-21T12:16:42;12.80;99.90
11112;DHT22;5609;49.466;8.468;2024-02-21T12:19:13;12.80;99.90
11112;DHT22;5609;49.466;8.468;2024-02-21T12:21:42;12.80;99.90
11112;DHT22;5609;49.466;8.468;2024-02-21T12:24:13;12.80;99.90
11112;DHT22;5609;49.466;8.468;2024-02-21T12:26:42;12.80;99.90
11112;DHT22;5609;49.466;8.468;2024-02-21T12:29:11;12.80;99.90
11112;DHT22;5609;49.466;8.468;2024-02-21T12:31:38;12.90;99.90
11112;DHT22;5609;49.466;8.468;2024-02-21T12:34:05;13.00;99.90
11112;DHT22;5609;49.466;8.468;2024-02-21T12:36:36;13.00;99.90
11112;DHT22;5609;49.466;8.468;2024-02-21T12:39:15;12.80;99.90
11112;DHT22;5609;49.466;8.468;2024-02-21T12:41:44;12.80;99.90
11112;DHT22;5609;49.466;8.468;2024-02-21T12:44:13;12.90;99.90
11112;DHT22;5609;49.466;8.468;2024-02-21T12:46:41;12.80;99.90
11112;DHT22;5609;49.466;8.468;2024-02-21T12:49:09;12.80;99.90
11112;DHT22;5609;49.466;8.468;2024-02-21T12:51:37;12.90;99.90
11112;DHT22;5609;49.466;8.468;2024-02-21T12:54:05;12.90;99.90
11112;DHT22;5609;49.466;8.468;2024-02-21T12:56:31;12.90;99.90
11112;DHT22;5609;49.466;8.468;2024-02-21T12:59:05;12.90;99.90
11112;DHT22;5609;49.466;8.468;2024-02-21T13:01:36;12.90;99.90
11112;DHT22;5609;49.466;8.468;2024-02-21T13:04:05;12.90;99.90
11112;DHT22;5609;49.466;8.468;2024-02-21T13:06:35;12.90;99.90
11112;DHT22;5609;49.466;8.468;2024-02-21T13:09:02;12.80;99.90
11112;DHT22;5609;49.466;8.468;2024-02-21T13:11:34;12.70;99.90
11112;DHT22;5609;49.466;8.468;2024-02-21T13:14:01;12.70;99.90
11112;DHT22;5609;49.466;8.468;2024-02-21T13:16:28;12.60;99.90
11112;DHT22;5609;49.466;8.468;2024-02-21T13:18:57;12.60;99.90
11112;DHT22;5609;49.466;8.468;2024-02-21T13:21:27;12.70;99.90
11112;DHT22;5609;49.466;8.468;2024-02-21T13:23:54;12.70;99.90
11112;DHT22;5609;49.466;8.468;2024-02-21T13:26:21;12.80;99.90
11112;DHT22;5609;49.466;8.468;2024-02-21T13:28:48;12.90;99.90
11112;DHT22;5609;49.466;8.468;2024-02-21T13:31:15;12.90;99.90
11112;DHT22;5609;49.466;8.468;2024-02-21T13:33:43;12.80;99.90
11112;DHT22;5609;49.466;8.468;2024-02-21T13:36:12;12.80;99.90
11112;DHT22;5609;49.466;8.468;2024-02-21T13:38:39;12.80;99.90
11112;DHT22;5609;49.466;8.468;2024-02-21T13:41:06;12.80;99.90
11112;DHT22;5609;49.466;8.468;2024-02-21T13:43:32;12.80;99.90
11112;DHT22;5609;49.466;8.468;2024-02-21T13:45:59;12.70;99.90
11112;DHT22;5609;49.466;8.468;2024-02-21T13:48:31;12.70;99.90
11112;DHT22;5609;49.466;8.468;2024-02-21T13:50:59;12.70;99.90
11112;DHT22;5609;49.466;8.468;2024-02-21T13:53:29;12.70;99.90
11112;DHT22;5609;49.466;8.468;2024-02-21T13:55:57;12.70;99.90
11112;DHT22;5609;49.466;8.468;2024-02-21T13:58:23;12.70;99.90
11112;DHT22;5609;49.466;8.468;2024-02-21T14:00:51;12.70;99.90
11112;DHT22;5609;49.466;8.468;2024-02-21T14:03:18;12.70;99.90
11112;DHT22;5609;49.466;8.468;2024-02-21T14:05:45;12.70;99.90
11112;DHT22;5609;49.466;8.468;2024-02-21T14:08:13;12.60;99.90
11112;DHT22;5609;49.466;8.468;2024-02-21T14:10:45;12.70;99.90
11112;DHT22;5609;49.466;8.468;2024-02-21T14:13:13;12.70;99.90
11112;DHT22;5609;49.466;8.468;2024-02-21T14:15:44;12.60;99.90
11112;DHT22;5609;49.466;8.468;2024-02-21T14:18:14;12.60;99.90
11112;DHT22;5609;49.466;8.468;2024-02-21T14:20:45;12.50;99.90
11112;DHT22;5609;49.466;8.468;2024-02-21T14:23:12;12.60;99.90
11112;DHT22;5609;49.466;8.468;2024-02-21T14:25:39;12.60;99.90
11112;DHT22;5609;49.466;8.468;2024-02-21T14:28:08;12.60;99.90
11112;DHT22;5609;49.466;8.468;2024-02-21T14:30:35;12.60;99.90
11112;DHT22;5609;49.466;8.468;2024-02-21T14:33:02;12.60;99.90
11112;DHT22;5609;49.466;8.468;2024-02-21T14:35:29;12.60;99.90
11112;DHT22;5609;49.466;8.468;2024-02-21T14:37:56;12.60;99.90
11112;DHT22;5609;49.466;8.468;2024-02-21T14:40:24;12.60;99.90
11112;DHT22;5609;49.466;8.468;2024-02-21T14:42:51;12.70;99.90
11112;DHT22;5609;49.466;8.468;2024-02-21T14:45:19;12.80;99.90
11112;DHT22;5609;49.466;8.468;2024-02-21T14:47:48;12.80;99.90
11112;DHT22;5609;49.466;8.468;2024-02-21T14:50:15;12.90;99.90
11112;DHT22;5609;49.466;8.468;2024-02-21T14:52:41;12.90;99.90
11112;DHT22;5609;49.466;8.468;2024-02-21T14:55:09;13.00;99.90
11112;DHT22;5609;49.466;8.468;2024-02-21T14:57:37;13.00;99.90
11112;DHT22;5609;49.466;8.468;2024-02-21T15:00:07;12.90;99.90
11112;DHT22;5609;49.466;8.468;2024-02-21T15:02:38;12.80;99.90
11112;DHT22;5609;49.466;8.468;2024-02-21T15:05:05;12.70;99.90
11112;DHT22;5609;49.466;8.468;2024-02-21T15:07:32;12.70;99.90
11112;DHT22;5609;49.466;8.468;2024-02-21T15:09:59;12.60;99.90
11112;DHT22;5609;49.466;8.468;2024-02-21T15:12:25;12.50;99.90
11112;DHT22;5609;49.466;8.468;2024-02-21T15:14:52;12.50;99.90
11112;DHT22;5609;49.466;8.468;2024-02-21T15:17:19;12.50;99.90
11112;DHT22;5609;49.466;8.468;2024-02-21T15:19:47;12.40;99.90
11112;DHT22;5609;49.466;8.468;2024-02-21T15:22:15;12.30;99.90
11112;DHT22;5609;49.466;8.468;2024-02-21T15:24:43;12.20;99.90
11112;DHT22;5609;49.466;8.468;2024-02-21T15:27:12;12.20;99.90
11112;DHT22;5609;49.466;8.468;2024-02-21T15:29:38;12.30;99.90
11112;DHT22;5609;49.466;8.468;2024-02-21T15:32:06;12.10;99.90
11112;DHT22;5609;49.466;8.468;2024-02-21T15:34:33;12.00;99.90
11112;DHT22;5609;49.466;8.468;2024-02-21T15:37:01;12.00;99.90
11112;DHT22;5609;49.466;8.468;2024-02-21T15:39:30;11.90;99.90
11112;DHT22;5609;49.466;8.468;2024-02-21T15:41:56;11.90;99.90
11112;DHT22;5609;49.466;8.468;2024-02-21T15:44:23;11.80;99.90
11112;DHT22;5609;49.466;8.468;2024-02-21T15:46:50;11.80;99.90
11112;DHT22;5609;49.466;8.468;2024-02-21T15:49:21;11.70;99.90
11112;DHT22;5609;49.466;8.468;2024-02-21T15:51:47;11.60;99.90
11112;DHT22;5609;49.466;8.468;2024-02-21T15:54:16;11.60;99.90
11112;DHT22;5609;49.466;8.468;2024-02-21T15:56:43;11.60;99.90
11112;DHT22;5609;49.466;8.468;2024-02-21T15:59:10;11.50;99.90